createdAt,value
2023-09-29T00:01:46.364Z,3.22
2023-09-29T00:12:21.465Z,2.42
2023-09-29T00:22:58.190Z,2.80
2023-09-29T00:33:32.906Z,3.05
2023-09-29T00:44:08.010Z,3.38
2023-09-29T00:54:42.645Z,3.50
2023-09-29T01:05:17.639Z,3.20
2023-09-29T01:15:56.034Z,2.90
2023-09-29T01:26:30.934Z,3.40
2023-09-29T01:37:06.410Z,3.63
2023-09-29T01:47:44.520Z,4.22
2023-09-29T01:58:20.890Z,3.80
2023-09-29T02:08:57.834Z,4.18
2023-09-29T02:19:36.954Z,3.70
2023-09-29T02:30:13.039Z,3.77
2023-09-29T02:40:48.462Z,3.38
2023-09-29T02:51:23.257Z,3.40
2023-09-29T03:01:58.660Z,3.30
2023-09-29T03:12:33.755Z,2.97
2023-09-29T03:23:08.581Z,3.60
2023-09-29T03:33:43.757Z,3.65
2023-09-29T03:44:18.882Z,3.58
2023-09-29T03:54:54.264Z,3.60
2023-09-29T04:05:29.425Z,3.42
2023-09-29T04:16:07.985Z,3.88
2023-09-29T04:26:42.728Z,4.20
2023-09-29T04:37:17.553Z,4.05
2023-09-29T04:47:53.937Z,4.20
2023-09-29T04:58:29.014Z,5.03
2023-09-29T05:09:04.407Z,5.05
2023-09-29T05:19:39.417Z,3.97
2023-09-29T05:30:14.614Z,4.45
2023-09-29T05:40:52.125Z,4.60
2023-09-29T05:51:26.750Z,4.72
2023-09-29T06:02:16.485Z,4.93
2023-09-29T06:12:53.259Z,4.55
2023-09-29T06:23:28.715Z,4.40
2023-09-29T06:34:03.903Z,4.03
2023-09-29T06:44:38.905Z,5.53
2023-09-29T06:55:14.546Z,4.60
2023-09-29T07:05:49.895Z,4.20
2023-09-29T07:16:24.638Z,3.78
2023-09-29T07:26:59.783Z,4.65
2023-09-29T07:37:35.409Z,4.57
2023-09-29T07:48:10.278Z,4.07
2023-09-29T07:58:45.204Z,4.43
2023-09-29T08:09:20.546Z,3.90
2023-09-29T08:19:55.246Z,3.50
2023-09-29T08:30:30.678Z,4.35
2023-09-29T08:41:06.635Z,3.67
2023-09-29T08:51:47.430Z,3.42
2023-09-29T09:02:22.666Z,3.38
2023-09-29T09:12:58.681Z,3.28
2023-09-29T09:23:39.878Z,2.90
2023-09-29T09:34:14.949Z,3.13
2023-09-29T09:44:49.860Z,3.70
2023-09-29T09:55:38.613Z,3.38
2023-09-29T10:06:14.770Z,3.60
2023-09-29T10:16:49.779Z,3.60
2023-09-29T10:27:34.084Z,3.33
2023-09-29T10:38:13.894Z,3.17
2023-09-29T10:48:50.988Z,3.13
2023-09-29T10:59:25.917Z,2.90
2023-09-29T11:10:01.014Z,3.38
2023-09-29T11:20:36.199Z,3.40
2023-09-29T11:31:12.821Z,2.85
2023-09-29T11:41:48.193Z,3.05
2023-09-29T11:52:22.914Z,2.55
2023-09-29T12:02:58.582Z,2.22
2023-09-29T12:13:34.904Z,2.35
2023-09-29T12:24:09.904Z,2.00
2023-09-29T12:34:45.139Z,1.75
2023-09-29T12:45:24.556Z,2.38
2023-09-29T12:55:59.542Z,1.98
2023-09-29T13:06:34.680Z,1.95
2023-09-29T13:17:10.522Z,2.50
2023-09-29T13:27:45.464Z,2.90
2023-09-29T13:38:20.237Z,5.03
2023-09-29T13:48:55.430Z,5.63
2023-09-29T13:59:30.158Z,5.95
2023-09-29T14:10:05.519Z,6.63
2023-09-29T14:20:40.313Z,10.02
2023-09-29T14:31:16.056Z,13.23
2023-09-29T14:41:51.378Z,16.92
2023-09-29T14:52:26.947Z,18.63
2023-09-29T15:03:02.013Z,18.83
2023-09-29T15:13:37.488Z,19.98
2023-09-29T15:24:12.529Z,19.35
2023-09-29T15:34:48.550Z,18.23
2023-09-29T15:45:23.864Z,17.17
2023-09-29T15:55:59.062Z,17.20
2023-09-29T16:06:34.066Z,15.15
2023-09-29T16:17:09.538Z,15.15
2023-09-29T16:27:44.401Z,14.30
2023-09-29T16:38:19.379Z,15.02
2023-09-29T16:48:54.624Z,13.43
2023-09-29T16:59:29.654Z,12.13
2023-09-29T17:10:05.382Z,11.35
2023-09-29T17:20:40.480Z,11.70
2023-09-29T17:31:15.641Z,9.43
2023-09-29T17:41:50.867Z,7.30
2023-09-29T17:52:25.941Z,6.13
2023-09-29T18:03:00.804Z,7.05
2023-09-29T18:13:35.759Z,4.97
2023-09-29T18:24:10.934Z,4.32
2023-09-29T18:34:45.799Z,4.55
2023-09-29T18:45:20.898Z,3.38
2023-09-29T18:55:57.939Z,3.33
2023-09-29T19:06:32.966Z,2.55
2023-09-29T19:17:09.119Z,2.63
2023-09-29T19:27:45.293Z,2.78
2023-09-29T19:38:20.386Z,2.90
2023-09-29T19:48:55.784Z,3.03
2023-09-29T19:59:30.927Z,2.00
2023-09-29T20:10:07.732Z,1.90
2023-09-29T20:20:42.813Z,2.38
2023-09-29T20:31:17.967Z,1.73
2023-09-29T20:41:52.806Z,0.77
2023-09-29T20:52:28.474Z,0.95
2023-09-29T21:03:04.805Z,1.20
2023-09-29T21:13:39.399Z,1.10
2023-09-29T21:24:17.138Z,1.45
2023-09-29T21:34:53.480Z,1.67
2023-09-29T21:45:30.327Z,1.48
2023-09-29T21:56:06.492Z,2.00
2023-09-29T22:06:41.946Z,1.58
2023-09-29T22:17:16.914Z,1.50
2023-09-29T22:27:51.674Z,1.63
2023-09-29T22:38:27.748Z,1.92
2023-09-29T22:49:02.588Z,1.80
2023-09-29T22:59:37.341Z,2.25
2023-09-29T23:10:15.525Z,2.33
2023-09-29T23:20:52.345Z,1.55
2023-09-29T23:31:27.509Z,1.92
2023-09-29T23:42:03.937Z,1.95
2023-09-29T23:52:39.677Z,1.80
